Time;durP1;ratioP1;P1;durP2;ratioP2;P2;SDS_P1;SDS_P2;PMS_P1;PMS_P2;Temp;Humidity;BMP_temperature;BMP_pressure;BME280_temperature;BME280_humidity;BME280_pressure;Samples;Min_cycle;Max_cycle;Signal;HPM_P1;HPM_P2
2021/08/19 00:00:29;;;;;;;7.35;6.65;;;22.00;70.40;;;;;;3072435;28;20040;-84
2021/08/19 00:02:01;;;;;;;7.35;6.57;;;22.00;70.40;;;;;;3072674;28;20059;-83
2021/08/19 00:03:32;;;;;;;7.30;6.53;;;22.00;70.50;;;;;;3073237;29;20051;-83
2021/08/19 00:05:05;;;;;;;6.60;6.00;;;22.00;70.40;;;;;;3073288;29;20051;-83
2021/08/19 00:06:38;;;;;;;8.27;6.47;;;22.00;70.50;;;;;;3072692;28;20055;-82
2021/08/19 00:08:09;;;;;;;8.93;7.00;;;22.00;70.40;;;;;;3083692;28;20058;-84
2021/08/19 00:09:41;;;;;;;7.18;6.47;;;22.00;70.30;;;;;;3084745;28;20077;-83
2021/08/19 00:11:13;;;;;;;7.32;6.55;;;22.00;70.30;;;;;;3084158;28;20550;-82
2021/08/19 00:12:44;;;;;;;8.05;6.82;;;22.00;70.30;;;;;;3085799;28;20057;-83
2021/08/19 00:14:16;;;;;;;7.13;6.43;;;22.00;70.30;;;;;;3085152;28;20050;-84
2021/08/19 00:15:50;;;;;;;7.35;6.40;;;22.00;70.30;;;;;;3083990;28;20051;-83
2021/08/19 00:17:21;;;;;;;6.82;6.15;;;22.00;70.30;;;;;;3084865;28;20129;-83
2021/08/19 00:18:53;;;;;;;7.65;6.85;;;22.00;70.30;;;;;;3084998;28;20074;-83
2021/08/19 00:20:25;;;;;;;8.43;6.72;;;22.00;70.30;;;;;;3084569;28;20275;-83
2021/08/19 00:21:58;;;;;;;7.43;6.63;;;22.00;70.30;;;;;;3084663;28;20508;-83
2021/08/19 00:23:29;;;;;;;7.05;6.35;;;21.90;70.30;;;;;;3087512;28;20059;-84
2021/08/19 00:25:01;;;;;;;7.25;6.50;;;21.90;70.20;;;;;;3087263;28;20490;-83
2021/08/19 00:26:34;;;;;;;7.22;6.45;;;21.90;70.10;;;;;;3086393;28;20051;-84
2021/08/19 00:28:06;;;;;;;7.35;6.47;;;21.90;70.00;;;;;;3087169;28;20051;-84
2021/08/19 00:29:37;;;;;;;7.03;6.32;;;21.90;70.10;;;;;;3081251;28;20051;-83
2021/08/19 00:31:09;;;;;;;7.00;6.38;;;21.90;70.10;;;;;;3073741;29;20047;-84
2021/08/19 00:32:41;;;;;;;7.27;6.57;;;21.90;70.10;;;;;;3075377;29;20128;-83
2021/08/19 00:34:13;;;;;;;7.18;6.32;;;22.00;70.10;;;;;;3075351;29;20302;-85
2021/08/19 00:35:45;;;;;;;9.35;6.57;;;21.90;70.10;;;;;;3075478;29;20477;-83
2021/08/19 00:37:18;;;;;;;7.25;6.45;;;21.90;70.10;;;;;;3078541;28;20051;-84
2021/08/19 00:38:48;;;;;;;7.07;6.38;;;21.90;70.00;;;;;;3087225;28;20050;-84
2021/08/19 00:40:20;;;;;;;7.80;7.00;;;21.90;70.00;;;;;;3088405;28;20503;-83
2021/08/19 00:41:52;;;;;;;7.00;6.30;;;21.90;70.10;;;;;;3087160;28;20575;-82
2021/08/19 00:43:24;;;;;;;7.40;6.63;;;21.90;70.00;;;;;;3088444;28;20398;-84
2021/08/19 00:44:57;;;;;;;7.68;6.80;;;21.90;70.00;;;;;;3087084;28;20122;-84
2021/08/19 00:46:30;;;;;;;6.95;6.25;;;21.90;70.00;;;;;;3087243;28;20281;-84
2021/08/19 00:48:02;;;;;;;;;;;21.90;69.90;;;;;;3089113;28;20050;-84
2021/08/19 00:49:34;;;;;;;7.43;6.50;;;21.90;69.90;;;;;;3087769;28;19945;-82
2021/08/19 00:51:06;;;;;;;6.72;6.13;;;21.90;69.80;;;;;;3087914;28;20062;-84
2021/08/19 00:52:39;;;;;;;6.78;6.07;;;21.90;69.90;;;;;;3088387;28;20101;-84
2021/08/19 00:54:12;;;;;;;7.00;6.35;;;21.90;69.90;;;;;;3088379;28;20118;-84
2021/08/19 00:55:44;;;;;;;7.10;6.18;;;21.80;69.90;;;;;;3088111;28;20511;-84
2021/08/19 00:57:16;;;;;;;7.15;6.45;;;21.80;69.90;;;;;;3087644;28;20039;-84
2021/08/19 00:58:47;;;;;;;7.13;6.25;;;21.80;69.90;;;;;;3088399;28;20074;-84
2021/08/19 01:00:19;;;;;;;6.97;6.25;;;21.80;69.90;;;;;;3086782;28;20062;-83
2021/08/19 01:01:51;;;;;;;6.90;6.25;;;21.80;69.80;;;;;;3087211;28;20070;-85
2021/08/19 01:03:23;;;;;;;7.20;6.50;;;21.80;69.80;;;;;;3088555;28;20054;-84
2021/08/19 01:04:54;;;;;;;6.82;6.13;;;21.80;69.80;;;;;;3088115;28;20062;-84
2021/08/19 01:06:26;;;;;;;6.97;6.27;;;21.80;69.80;;;;;;3086935;28;20050;-84
2021/08/19 01:08:00;;;;;;;7.13;6.43;;;21.80;69.80;;;;;;3087811;28;20054;-85
2021/08/19 01:09:31;;;;;;;7.63;6.18;;;21.80;69.80;;;;;;3088879;28;20042;-82
2021/08/19 01:11:04;;;;;;;6.80;6.13;;;21.80;69.80;;;;;;3088045;28;20424;-84
2021/08/19 01:12:35;;;;;;;6.63;5.85;;;21.80;69.70;;;;;;3088604;28;20066;-84
2021/08/19 01:14:07;;;;;;;6.93;6.32;;;21.80;69.70;;;;;;3089272;28;20050;-83
2021/08/19 01:15:39;;;;;;;6.80;6.20;;;21.80;69.70;;;;;;3088235;28;20377;-84
2021/08/19 01:17:13;;;;;;;8.57;6.80;;;21.80;69.70;;;;;;3088226;28;20051;-84
2021/08/19 01:18:45;;;;;;;7.03;6.32;;;21.80;69.70;;;;;;3088532;28;20054;-83
2021/08/19 01:20:17;;;;;;;6.55;5.95;;;21.80;69.70;;;;;;3087948;28;20492;-82
2021/08/19 01:21:49;;;;;;;6.70;6.10;;;21.80;70.30;;;;;;3088471;28;20101;-83
2021/08/19 01:23:22;;;;;;;7.32;6.63;;;21.80;69.70;;;;;;3088443;28;20055;-84
2021/08/19 01:24:54;;;;;;;6.90;6.15;;;21.80;70.30;;;;;;3088498;28;20081;-83
2021/08/19 01:26:26;;;;;;;6.40;5.80;;;21.80;69.60;;;;;;3087306;28;20062;-83
2021/08/19 01:27:59;;;;;;;6.68;6.07;;;21.70;69.50;;;;;;3088690;28;20374;-84
2021/08/19 01:29:31;;;;;;;7.43;6.72;;;21.80;69.60;;;;;;3082188;28;20059;-83
2021/08/19 01:31:03;;;;;;;6.78;6.07;;;21.80;69.50;;;;;;3072520;29;20048;-83
2021/08/19 01:32:35;;;;;;;7.28;6.50;;;21.80;69.50;;;;;;3076075;29;20055;-83
2021/08/19 01:34:06;;;;;;;6.80;6.10;;;21.70;69.40;;;;;;3076451;29;20490;-83
2021/08/19 01:35:38;;;;;;;6.88;6.18;;;21.70;69.50;;;;;;3075934;29;20070;-84
2021/08/19 01:37:11;;;;;;;7.20;6.50;;;21.70;69.40;;;;;;3077551;28;20062;-84
2021/08/19 01:38:43;;;;;;;6.43;5.82;;;21.70;69.40;;;;;;3087710;28;20073;-82
2021/08/19 01:40:15;;;;;;;6.10;5.55;;;21.70;69.40;;;;;;3087189;28;20551;-83
2021/08/19 01:41:47;;;;;;;6.75;6.03;;;21.70;69.40;;;;;;3086610;28;20054;-83
2021/08/19 01:43:22;;;;;;;7.75;6.53;;;21.70;69.40;;;;;;3087727;28;20050;-84
2021/08/19 01:44:53;;;;;;;6.68;6.07;;;21.70;69.40;;;;;;3087398;28;20059;-84
2021/08/19 01:46:25;;;;;;;6.90;6.20;;;21.70;69.40;;;;;;3086401;28;20428;-84
2021/08/19 01:47:57;;;;;;;7.65;6.55;;;21.70;69.40;;;;;;3087275;28;20456;-84
2021/08/19 01:49:29;;;;;;;6.75;6.05;;;21.70;69.40;;;;;;3086683;28;20062;-83
2021/08/19 01:51:00;;;;;;;6.50;5.90;;;21.70;69.30;;;;;;3087061;28;20042;-84
2021/08/19 01:52:32;;;;;;;6.97;6.25;;;21.70;69.40;;;;;;3087590;28;20058;-83
2021/08/19 01:54:04;;;;;;;6.55;5.95;;;21.70;69.40;;;;;;3087223;28;20060;-83
2021/08/19 01:55:35;;;;;;;6.50;5.80;;;21.70;69.40;;;;;;3087219;28;20428;-84
2021/08/19 01:57:07;;;;;;;7.53;6.38;;;21.70;69.30;;;;;;3083674;28;20050;-83
2021/08/19 01:58:40;;;;;;;6.35;5.75;;;21.70;69.30;;;;;;3075111;29;20059;-83
2021/08/19 02:00:12;;;;;;;7.15;6.45;;;21.60;69.30;;;;;;3073906;28;20062;-81
2021/08/19 02:01:44;;;;;;;7.40;6.43;;;21.60;69.30;;;;;;3074376;28;20502;-82
2021/08/19 02:03:16;;;;;;;6.70;6.10;;;21.60;69.20;;;;;;3075484;29;20047;-84
2021/08/19 02:04:47;;;;;;;6.90;6.13;;;21.60;69.30;;;;;;3074897;29;20528;-83
2021/08/19 02:06:19;;;;;;;6.78;6.07;;;21.60;69.30;;;;;;3074344;28;20429;-83
2021/08/19 02:07:51;;;;;;;6.97;6.25;;;21.60;69.30;;;;;;3082992;28;20046;-84
2021/08/19 02:09:23;;;;;;;6.85;6.15;;;21.60;69.90;;;;;;3086425;28;20129;-83
2021/08/19 02:10:55;;;;;;;6.93;5.70;;;21.60;69.20;;;;;;3085902;28;20042;-83
2021/08/19 02:12:26;;;;;;;6.90;6.20;;;21.60;69.10;;;;;;3086986;28;20047;-83
2021/08/19 02:13:59;;;;;;;6.68;6.00;;;21.60;69.30;;;;;;3087167;28;20058;-84
2021/08/19 02:15:31;;;;;;;6.75;6.15;;;21.60;69.30;;;;;;3085665;28;20100;-83
2021/08/19 02:17:03;;;;;;;6.55;5.95;;;21.60;69.20;;;;;;3085986;28;20050;-82
2021/08/19 02:18:34;;;;;;;6.40;5.80;;;21.60;69.20;;;;;;3086795;28;20065;-82
2021/08/19 02:20:06;;;;;;;7.03;6.32;;;21.60;69.20;;;;;;3085845;28;20046;-83
2021/08/19 02:21:38;;;;;;;6.63;6.03;;;21.60;69.20;;;;;;3085584;28;20042;-84
2021/08/19 02:23:10;;;;;;;7.10;6.25;;;21.60;69.10;;;;;;3086650;28;20085;-83
2021/08/19 02:24:41;;;;;;;6.50;5.85;;;21.60;69.00;;;;;;3086503;28;20047;-83
2021/08/19 02:26:13;;;;;;;6.80;6.20;;;21.60;69.00;;;;;;3086141;28;20059;-83
2021/08/19 02:27:45;;;;;;;6.78;6.18;;;21.60;69.00;;;;;;3086436;28;20485;-84
2021/08/19 02:29:18;;;;;;;6.97;6.18;;;21.60;69.00;;;;;;3085827;28;20046;-84
2021/08/19 02:30:50;;;;;;;6.50;5.90;;;21.60;69.00;;;;;;3085660;28;20050;-83
2021/08/19 02:32:23;;;;;;;6.80;6.03;;;21.60;68.90;;;;;;3086807;28;20110;-84
2021/08/19 02:33:54;;;;;;;6.72;5.93;;;21.60;69.00;;;;;;3086350;28;20146;-84
2021/08/19 02:35:26;;;;;;;6.15;5.57;;;21.60;69.00;;;;;;3086414;28;20054;-83
2021/08/19 02:36:58;;;;;;;6.18;5.57;;;21.60;69.00;;;;;;3086018;28;20050;-84
2021/08/19 02:38:30;;;;;;;6.70;6.10;;;21.60;69.00;;;;;;3086591;28;20059;-83
2021/08/19 02:40:02;;;;;;;6.78;6.10;;;21.60;69.00;;;;;;3086128;28;20377;-84
2021/08/19 02:41:33;;;;;;;6.60;5.93;;;21.50;68.90;;;;;;3085511;28;20082;-84
2021/08/19 02:43:05;;;;;;;6.65;6.05;;;21.50;68.90;;;;;;3086716;28;20047;-85
2021/08/19 02:44:38;;;;;;;6.00;5.50;;;21.50;68.90;;;;;;3086311;28;20059;-84
2021/08/19 02:46:11;;;;;;;6.95;5.78;;;21.60;68.90;;;;;;3085101;28;20516;-85
2021/08/19 02:47:42;;;;;;;6.10;5.50;;;21.60;68.80;;;;;;3086195;28;20051;-84
2021/08/19 02:49:14;;;;;;;6.40;5.80;;;21.60;68.80;;;;;;3085732;28;20058;-84
2021/08/19 02:50:46;;;;;;;6.13;5.57;;;21.60;69.50;;;;;;3086028;28;20066;-85
2021/08/19 02:52:17;;;;;;;6.43;5.82;;;21.60;68.80;;;;;;3085629;28;20070;-84
2021/08/19 02:53:49;;;;;;;6.45;5.75;;;21.50;68.80;;;;;;3085976;28;20051;-84
2021/08/19 02:55:21;;;;;;;6.28;5.68;;;21.50;68.70;;;;;;3086531;28;20066;-83
2021/08/19 02:56:52;;;;;;;6.63;6.03;;;21.60;68.70;;;;;;3085182;28;20054;-84
2021/08/19 02:58:24;;;;;;;6.35;5.75;;;21.50;68.70;;;;;;3086016;28;20042;-84
2021/08/19 02:59:58;;;;;;;6.25;5.65;;;21.50;68.80;;;;;;3085609;28;20055;-84
2021/08/19 03:01:30;;;;;;;6.63;6.00;;;21.50;68.70;;;;;;3084904;28;20069;-83
2021/08/19 03:03:01;;;;;;;6.60;6.00;;;21.50;68.70;;;;;;3086172;28;20046;-84
2021/08/19 03:04:33;;;;;;;5.95;5.45;;;21.50;68.60;;;;;;3086211;28;20058;-85
2021/08/19 03:06:05;;;;;;;6.30;5.70;;;21.60;68.70;;;;;;3085517;28;20520;-84
2021/08/19 03:07:36;;;;;;;6.25;5.65;;;21.50;68.70;;;;;;3085943;28;20055;-84
2021/08/19 03:09:08;;;;;;;6.75;6.05;;;21.50;68.60;;;;;;3085712;28;20492;-84
2021/08/19 03:10:40;;;;;;;6.40;5.80;;;21.50;68.60;;;;;;3085576;28;20121;-84
2021/08/19 03:12:11;;;;;;;6.45;5.85;;;21.50;68.60;;;;;;3085270;28;20096;-83
2021/08/19 03:13:42;;;;;;;6.28;5.68;;;21.50;68.60;;;;;;3085853;28;20042;-84
2021/08/19 03:15:15;;;;;;;6.57;5.97;;;21.50;68.60;;;;;;3085289;28;20476;-84
2021/08/19 03:16:47;;;;;;;6.40;5.45;;;21.50;68.60;;;;;;3085277;28;20057;-84
2021/08/19 03:18:19;;;;;;;6.00;5.50;;;21.50;68.60;;;;;;3086137;28;20062;-84
2021/08/19 03:19:50;;;;;;;5.60;5.10;;;21.50;68.60;;;;;;3085368;28;20059;-84
2021/08/19 03:21:21;;;;;;;6.63;5.93;;;21.50;68.60;;;;;;3086196;28;20113;-85
2021/08/19 03:22:53;;;;;;;6.65;5.90;;;21.50;68.60;;;;;;3090873;28;20046;-82
2021/08/19 03:24:25;;;;;;;6.32;5.72;;;21.50;68.60;;;;;;3090872;28;20081;-86
2021/08/19 03:25:57;;;;;;;6.28;5.68;;;21.50;68.60;;;;;;3082189;28;20055;-85
2021/08/19 03:27:31;;;;;;;6.47;5.70;;;21.50;68.60;;;;;;3090084;28;20055;-84
2021/08/19 03:29:03;;;;;;;6.18;5.57;;;21.50;68.60;;;;;;3090814;28;20054;-86
2021/08/19 03:30:37;;;;;;;6.00;5.50;;;21.50;68.60;;;;;;3083677;28;20047;-84
2021/08/19 03:32:07;;;;;;;6.00;5.40;;;21.50;68.60;;;;;;3088285;28;20043;-85
2021/08/19 03:33:39;;;;;;;5.97;5.38;;;21.50;68.50;;;;;;3089171;28;20046;-84
2021/08/19 03:35:11;;;;;;;5.88;5.38;;;21.50;68.50;;;;;;3089940;28;20043;-81
2021/08/19 03:36:43;;;;;;;5.55;5.05;;;21.50;68.50;;;;;;3088489;28;20117;-83
2021/08/19 03:38:15;;;;;;;5.88;5.38;;;21.50;68.50;;;;;;3088877;28;20046;-83
2021/08/19 03:39:46;;;;;;;6.28;5.68;;;21.50;68.60;;;;;;3088138;28;20055;-85
2021/08/19 03:41:18;;;;;;;5.90;5.40;;;21.50;68.50;;;;;;3088418;28;20046;-85
2021/08/19 03:42:50;;;;;;;6.25;5.65;;;21.50;68.50;;;;;;3087839;28;20423;-84
2021/08/19 03:44:22;;;;;;;6.57;5.93;;;21.50;68.40;;;;;;3089499;28;20487;-84
2021/08/19 03:45:55;;;;;;;5.82;5.22;;;21.40;68.40;;;;;;3088337;28;20114;-85
2021/08/19 03:47:27;;;;;;;5.70;5.20;;;21.40;68.50;;;;;;3087069;28;20047;-84
2021/08/19 03:48:59;;;;;;;6.20;5.60;;;21.40;68.50;;;;;;3088360;28;20532;-85
2021/08/19 03:50:31;;;;;;;5.93;5.28;;;21.40;68.40;;;;;;3088078;28;20500;-85
2021/08/19 03:52:02;;;;;;;5.70;5.20;;;21.40;68.40;;;;;;3081771;28;20070;-83
2021/08/19 03:53:35;;;;;;;6.10;5.50;;;21.40;68.40;;;;;;3081429;28;20043;-86
2021/08/19 03:55:09;;;;;;;;;;;21.40;68.40;;;;;;3087894;28;20051;-85
2021/08/19 03:56:41;;;;;;;6.25;5.65;;;21.40;68.40;;;;;;3082494;28;19926;-85
2021/08/19 03:58:12;;;;;;;5.90;5.40;;;21.50;68.40;;;;;;3082179;28;20062;-83
2021/08/19 03:59:44;;;;;;;6.68;5.97;;;21.40;68.30;;;;;;3086088;28;20432;-83
2021/08/19 04:01:17;;;;;;;6.18;5.60;;;21.40;68.40;;;;;;3086650;28;20788;-84
2021/08/19 04:02:49;;;;;;;6.95;5.22;;;21.40;68.30;;;;;;3084643;28;20481;-85
2021/08/19 04:04:21;;;;;;;5.80;5.30;;;21.50;68.30;;;;;;3086647;28;20073;-85
2021/08/19 04:05:52;;;;;;;5.82;5.22;;;21.50;68.30;;;;;;3087188;28;20559;-82
2021/08/19 04:07:24;;;;;;;5.15;4.70;;;21.50;68.10;;;;;;3087211;28;20058;-83
2021/08/19 04:08:56;;;;;;;5.38;4.88;;;21.70;67.80;;;;;;3087462;28;20058;-85
2021/08/19 04:10:27;;;;;;;5.28;4.78;;;21.80;67.30;;;;;;3085441;28;20734;-85
2021/08/19 04:12:00;;;;;;;5.10;4.70;;;21.90;66.90;;;;;;3081529;28;20424;-85
2021/08/19 04:13:31;;;;;;;5.50;5.00;;;22.10;66.30;;;;;;3076016;28;20059;-84
2021/08/19 04:15:04;;;;;;;5.05;4.55;;;22.30;65.80;;;;;;3076778;28;20047;-84
2021/08/19 04:16:37;;;;;;;5.70;5.20;;;22.40;65.30;;;;;;3086725;28;20054;-82
2021/08/19 04:18:10;;;;;;;5.00;4.53;;;22.40;65.20;;;;;;3076776;28;20054;-85
2021/08/19 04:19:42;;;;;;;4.90;4.50;;;22.50;64.90;;;;;;3075017;29;20102;-85
2021/08/19 04:21:14;;;;;;;4.85;4.35;;;22.60;64.90;;;;;;3084405;28;20085;-84
2021/08/19 04:22:45;;;;;;;4.70;4.30;;;22.60;64.60;;;;;;3084494;28;20055;-83
2021/08/19 04:24:16;;;;;;;4.93;4.47;;;22.80;64.40;;;;;;3077304;28;20063;-84
2021/08/19 04:25:49;;;;;;;4.80;4.40;;;22.80;64.20;;;;;;3081484;28;20046;-84
2021/08/19 04:27:21;;;;;;;4.78;4.38;;;22.80;64.00;;;;;;3078624;28;20050;-85
2021/08/19 04:28:53;;;;;;;4.80;4.40;;;22.90;63.90;;;;;;3080045;28;20047;-84
2021/08/19 04:30:24;;;;;;;4.50;4.10;;;23.00;63.70;;;;;;3081780;28;21705;-83
2021/08/19 04:31:59;;;;;;;4.47;4.07;;;23.10;63.60;;;;;;3084931;28;20050;-85
2021/08/19 04:33:31;;;;;;;5.05;4.55;;;23.10;63.40;;;;;;3087546;28;20078;-85
2021/08/19 04:35:03;;;;;;;4.88;4.47;;;23.20;63.20;;;;;;3087140;28;20062;-84
2021/08/19 04:36:34;;;;;;;4.80;4.40;;;23.20;63.10;;;;;;3083045;28;20555;-83
2021/08/19 04:38:06;;;;;;;4.63;4.22;;;23.30;63.00;;;;;;3084435;28;20054;-83
2021/08/19 04:39:38;;;;;;;4.68;4.28;;;23.30;63.00;;;;;;3086380;28;20051;-85
2021/08/19 04:41:09;;;;;;;4.93;3.97;;;23.30;62.80;;;;;;3085937;28;20051;-85
2021/08/19 04:42:41;;;;;;;4.10;3.80;;;23.40;62.70;;;;;;3082729;28;20183;-84
2021/08/19 04:44:13;;;;;;;4.70;4.25;;;23.50;62.60;;;;;;3088202;28;20100;-83
2021/08/19 04:45:44;;;;;;;4.60;4.20;;;23.50;62.30;;;;;;3088041;28;20414;-84
2021/08/19 04:47:17;;;;;;;4.70;4.15;;;23.50;62.30;;;;;;3088087;28;20035;-83
2021/08/19 04:48:49;;;;;;;4.80;4.35;;;23.60;62.40;;;;;;3084403;28;20058;-83
2021/08/19 04:50:21;;;;;;;4.72;4.30;;;23.60;63.00;;;;;;3076780;29;20142;-81
2021/08/19 04:51:52;;;;;;;4.20;3.90;;;23.60;62.30;;;;;;3076298;28;20043;-85
2021/08/19 04:53:24;;;;;;;4.35;3.95;;;23.60;62.00;;;;;;3087731;28;20055;-84
2021/08/19 04:54:56;;;;;;;4.65;4.25;;;23.70;62.00;;;;;;3088678;28;20054;-85
2021/08/19 04:56:30;;;;;;;4.38;3.97;;;23.70;62.00;;;;;;3077110;28;20055;-84
2021/08/19 04:58:01;;;;;;;4.45;4.05;;;23.70;61.90;;;;;;3087270;28;20054;-84
2021/08/19 04:59:32;;;;;;;3.95;3.65;;;23.80;61.90;;;;;;3087577;28;20050;-85
2021/08/19 05:01:04;;;;;;;4.40;4.00;;;23.80;61.80;;;;;;3086218;28;20038;-85
2021/08/19 05:02:37;;;;;;;4.38;3.97;;;23.80;61.90;;;;;;3086958;28;20078;-84
2021/08/19 05:04:08;;;;;;;4.53;4.13;;;23.80;61.90;;;;;;3075872;29;20051;-85
2021/08/19 05:05:40;;;;;;;4.25;3.95;;;23.80;61.70;;;;;;3076247;29;20059;-85
2021/08/19 05:07:12;;;;;;;4.45;4.05;;;23.80;61.70;;;;;;3078497;28;20508;-84
2021/08/19 05:08:44;;;;;;;4.38;3.97;;;23.80;61.90;;;;;;3088216;28;20055;-83
2021/08/19 05:10:16;;;;;;;3.67;3.38;;;23.80;61.80;;;;;;3078455;28;20047;-84
2021/08/19 05:11:47;;;;;;;3.95;3.65;;;23.90;62.50;;;;;;3079801;28;20049;-85
2021/08/19 05:13:19;;;;;;;4.20;3.80;;;23.90;61.80;;;;;;3077406;28;20464;-85
2021/08/19 05:14:51;;;;;;;4.50;4.00;;;23.90;61.70;;;;;;3087255;28;20082;-85
2021/08/19 05:16:22;;;;;;;4.55;4.15;;;23.90;61.70;;;;;;3085125;28;20055;-84
2021/08/19 05:17:55;;;;;;;4.25;3.95;;;23.90;61.60;;;;;;3087430;28;20046;-83
2021/08/19 05:19:27;;;;;;;3.92;3.60;;;24.00;61.70;;;;;;3087114;28;20087;-85
2021/08/19 05:20:59;;;;;;;4.30;3.90;;;23.90;61.70;;;;;;3082324;28;20074;-85
2021/08/19 05:22:31;;;;;;;4.45;4.05;;;24.00;61.70;;;;;;3085468;28;20046;-85
2021/08/19 05:24:02;;;;;;;4.10;3.70;;;24.00;61.70;;;;;;3075457;28;20047;-84
2021/08/19 05:25:34;;;;;;;4.32;3.92;;;24.00;62.30;;;;;;3078007;28;20094;-85
2021/08/19 05:27:06;;;;;;;3.95;3.65;;;24.00;61.50;;;;;;3085741;28;20058;-86
2021/08/19 05:28:37;;;;;;;3.90;3.60;;;24.00;61.70;;;;;;3086855;28;20463;-86
2021/08/19 05:30:09;;;;;;;4.30;3.90;;;24.00;61.50;;;;;;3076304;28;20130;-86
2021/08/19 05:31:41;;;;;;;4.22;3.92;;;24.00;61.50;;;;;;3078547;28;20050;-84
2021/08/19 05:33:14;;;;;;;3.70;3.40;;;24.00;61.50;;;;;;3074898;28;20054;-82
2021/08/19 05:34:46;;;;;;;4.18;3.78;;;24.00;61.50;;;;;;3075081;29;20050;-85
2021/08/19 05:36:17;;;;;;;4.30;3.90;;;24.10;61.50;;;;;;3083100;28;20048;-86
2021/08/19 05:37:49;;;;;;;3.90;3.50;;;24.00;61.60;;;;;;3077419;28;20055;-83
2021/08/19 05:39:21;;;;;;;3.97;3.63;;;24.00;61.60;;;;;;3079273;28;20053;-85
2021/08/19 05:40:53;;;;;;;4.25;3.85;;;24.00;61.50;;;;;;3081533;28;20066;-84
2021/08/19 05:42:26;;;;;;;4.05;3.70;;;24.10;61.60;;;;;;3084491;28;20133;-82
2021/08/19 05:43:57;;;;;;;4.20;3.80;;;24.10;61.40;;;;;;3087363;28;20109;-81
2021/08/19 05:45:29;;;;;;;3.72;3.42;;;24.10;61.30;;;;;;3084612;28;20056;-84
2021/08/19 05:47:01;;;;;;;4.10;3.80;;;24.10;61.30;;;;;;3077157;28;20138;-85
2021/08/19 05:48:34;;;;;;;4.40;4.00;;;24.10;61.30;;;;;;3087088;28;20055;-85
2021/08/19 05:50:10;;;;;;;4.57;4.18;;;24.00;61.80;;;;;;3086106;28;20449;-86
2021/08/19 05:51:42;;;;;;;4.32;3.72;;;23.80;61.50;;;;;;3075458;28;20252;-86
2021/08/19 05:53:13;;;;;;;4.35;3.92;;;23.50;61.80;;;;;;3074789;29;20051;-85
2021/08/19 05:54:45;;;;;;;4.07;3.55;;;23.40;62.20;;;;;;3074412;28;20047;-82
2021/08/19 05:56:17;;;;;;;4.70;3.90;;;23.30;62.20;;;;;;3074992;28;20488;-80
2021/08/19 05:57:51;;;;;;;4.25;3.85;;;23.20;62.50;;;;;;3083178;28;20046;-81
2021/08/19 05:59:22;;;;;;;5.50;3.70;;;23.10;62.90;;;;;;3086324;28;20066;-80
2021/08/19 06:00:54;;;;;;;10.80;4.05;;;23.00;63.00;;;;;;3081263;28;20483;-82
2021/08/19 06:02:26;;;;;;;7.72;3.92;;;23.10;63.20;;;;;;3074668;28;20055;-83
2021/08/19 06:03:59;;;;;;;10.48;4.93;;;23.10;64.20;;;;;;3083898;28;20047;-82
2021/08/19 06:05:30;;;;;;;11.90;4.75;;;23.00;65.10;;;;;;3075474;28;20055;-82
2021/08/19 06:07:02;;;;;;;10.73;4.15;;;23.00;65.50;;;;;;3082175;28;20054;-83
2021/08/19 06:08:34;;;;;;;7.10;4.20;;;22.90;65.90;;;;;;3089036;28;20420;-83
2021/08/19 06:10:06;;;;;;;9.80;4.32;;;23.10;65.80;;;;;;3088623;28;20051;-83
2021/08/19 06:11:38;;;;;;;8.00;4.18;;;23.20;65.30;;;;;;3086594;28;20054;-84
2021/08/19 06:13:10;;;;;;;13.40;4.32;;;23.30;64.80;;;;;;3089051;28;20061;-83
2021/08/19 06:14:41;;;;;;;12.60;4.47;;;23.30;64.80;;;;;;3088778;28;20066;-83
2021/08/19 06:16:13;;;;;;;10.15;4.25;;;23.50;65.70;;;;;;3087126;28;20039;-81
2021/08/19 06:17:45;;;;;;;9.65;3.90;;;23.60;64.80;;;;;;3086747;28;20539;-86
2021/08/19 06:19:19;;;;;;;11.38;3.95;;;23.60;64.50;;;;;;3075269;28;20043;-85
2021/08/19 06:20:50;;;;;;;8.40;4.30;;;23.60;64.10;;;;;;3085352;28;20185;-85
2021/08/19 06:22:22;;;;;;;6.72;3.75;;;23.60;64.10;;;;;;3085139;28;20054;-84
2021/08/19 06:23:54;;;;;;;9.32;4.50;;;23.50;64.40;;;;;;3087399;28;20559;-85
2021/08/19 06:25:25;;;;;;;11.50;4.00;;;23.50;64.00;;;;;;3089154;28;20398;-81
2021/08/19 06:26:57;;;;;;;11.70;4.00;;;23.50;64.10;;;;;;3080985;28;20168;-84
2021/08/19 06:28:29;;;;;;;6.38;3.70;;;23.50;63.90;;;;;;3083922;28;20396;-85
2021/08/19 06:30:01;;;;;;;5.75;3.85;;;23.60;63.90;;;;;;3089036;28;20046;-84
2021/08/19 06:31:32;;;;;;;6.60;3.80;;;23.60;63.80;;;;;;3086407;28;20053;-84
2021/08/19 06:33:04;;;;;;;9.98;3.70;;;23.50;63.70;;;;;;3089780;28;20054;-83
2021/08/19 06:34:37;;;;;;;4.72;3.67;;;23.50;63.80;;;;;;3089221;28;20046;-81
2021/08/19 06:36:09;;;;;;;12.27;3.58;;;23.50;63.40;;;;;;3078305;28;20051;-85
2021/08/19 06:37:41;;;;;;;7.60;4.20;;;23.60;63.10;;;;;;3082290;28;20097;-84
2021/08/19 06:39:13;;;;;;;6.97;3.70;;;23.60;62.80;;;;;;3086695;28;20077;-81
2021/08/19 06:40:44;;;;;;;6.70;3.30;;;23.70;62.50;;;;;;3086965;28;20051;-81
2021/08/19 06:42:16;;;;;;;6.75;3.95;;;23.70;62.40;;;;;;3080696;28;20488;-83
2021/08/19 06:43:48;;;;;;;9.35;3.72;;;23.80;62.10;;;;;;3081291;28;20563;-82
2021/08/19 06:45:20;;;;;;;10.70;4.22;;;23.70;62.10;;;;;;3085250;28;20043;-84
2021/08/19 07:04:06;;;;;;;10.25;3.88;;;23.50;61.70;;;;;;3161777;27;20453;-84
2021/08/19 07:05:37;;;;;;;7.95;4.18;;;23.60;60.80;;;;;;3157689;28;20498;-84
2021/08/19 07:07:11;;;;;;;11.02;4.30;;;23.60;60.80;;;;;;3157052;28;20102;-83
2021/08/19 07:08:43;;;;;;;15.20;4.50;;;23.50;61.00;;;;;;3156074;28;20447;-84
2021/08/19 07:10:15;;;;;;;8.90;4.28;;;23.50;61.00;;;;;;3157525;28;20101;-83
2021/08/19 07:11:49;;;;;;;9.27;4.15;;;23.50;60.70;;;;;;3157481;28;20064;-83
2021/08/19 07:13:20;;;;;;;6.85;4.20;;;23.60;60.40;;;;;;3156932;28;20055;-80
2021/08/19 07:14:52;;;;;;;10.73;4.47;;;23.70;60.00;;;;;;3158187;28;20047;-82
2021/08/19 07:16:24;;;;;;;14.10;4.50;;;23.80;59.70;;;;;;3156226;28;20048;-83
2021/08/19 07:17:55;;;;;;;7.88;4.40;;;23.90;59.50;;;;;;3157860;28;20044;-82
2021/08/19 07:19:28;;;;;;;6.82;3.92;;;24.00;59.40;;;;;;3157448;28;20048;-83
2021/08/19 07:21:00;;;;;;;13.43;4.22;;;24.00;59.30;;;;;;3156648;28;20052;-83
2021/08/19 07:22:32;;;;;;;11.60;3.88;;;24.00;59.00;;;;;;3156152;28;20067;-83
2021/08/19 07:24:04;;;;;;;9.35;3.97;;;24.00;59.20;;;;;;3157385;28;20040;-82
2021/08/19 07:25:36;;;;;;;14.13;4.47;;;23.90;59.30;;;;;;3157210;28;20563;-83
2021/08/19 07:27:08;;;;;;;13.50;4.40;;;24.00;59.60;;;;;;3161011;28;20168;-84
2021/08/19 07:28:39;;;;;;;11.50;4.72;;;24.00;59.70;;;;;;3157401;28;20098;-83
2021/08/19 07:30:12;;;;;;;12.15;4.60;;;24.00;59.80;;;;;;3156151;28;20040;-83
2021/08/19 07:31:44;;;;;;;11.60;4.78;;;24.10;59.70;;;;;;3157258;28;20063;-84
2021/08/19 07:33:17;;;;;;;8.65;4.43;;;24.10;59.70;;;;;;3154569;28;20044;-84
2021/08/19 07:34:50;;;;;;;11.02;4.65;;;24.20;59.60;;;;;;3155840;28;20044;-85
2021/08/19 07:36:22;;;;;;;11.60;4.43;;;24.20;59.70;;;;;;3155946;28;20060;-83
2021/08/19 07:37:55;;;;;;;13.40;4.78;;;24.20;60.30;;;;;;3156305;28;20048;-82
2021/08/19 07:39:26;;;;;;;10.30;4.90;;;24.20;59.60;;;;;;3157742;28;20078;-82
2021/08/19 07:40:58;;;;;;;12.50;4.25;;;24.30;59.60;;;;;;3158595;28;20059;-82
2021/08/19 07:42:30;;;;;;;9.70;4.68;;;24.30;59.40;;;;;;3156357;28;20532;-82
2021/08/19 07:44:02;;;;;;;12.52;4.35;;;24.30;59.30;;;;;;3157590;28;20108;-82
2021/08/19 07:45:34;;;;;;;11.10;4.72;;;24.30;59.40;;;;;;3156939;28;20048;-82
2021/08/19 07:47:06;;;;;;;10.80;4.50;;;24.30;59.40;;;;;;3157356;28;20052;-81
2021/08/19 07:48:40;;;;;;;11.75;4.28;;;24.30;59.30;;;;;;3156531;28;20321;-81
2021/08/19 07:50:13;;;;;;;20.73;5.10;;;24.40;59.30;;;;;;3157898;28;20111;-81
2021/08/19 07:51:45;;;;;;;22.02;4.53;;;24.40;59.10;;;;;;3156898;28;20155;-81
2021/08/19 07:53:16;;;;;;;22.77;4.55;;;24.40;59.30;;;;;;3156750;28;20048;-81
2021/08/19 07:54:48;;;;;;;23.80;5.13;;;24.30;59.40;;;;;;3155780;28;20099;-82
2021/08/19 07:56:20;;;;;;;18.63;4.43;;;24.30;59.40;;;;;;3156214;28;20209;-82
2021/08/19 07:57:52;;;;;;;18.35;4.95;;;24.30;59.40;;;;;;3156546;28;20407;-81
2021/08/19 07:59:23;;;;;;;26.20;4.90;;;24.40;59.20;;;;;;3149594;28;20056;-81
2021/08/19 08:00:56;;;;;;;18.30;5.00;;;24.30;59.20;;;;;;3156020;28;20043;-82
2021/08/19 08:02:28;;;;;;;17.67;4.30;;;24.30;59.10;;;;;;3146998;28;20053;-82
2021/08/19 08:03:59;;;;;;;14.82;4.57;;;24.40;58.90;;;;;;3143754;28;20045;-82
2021/08/19 08:05:33;;;;;;;22.23;4.65;;;24.40;58.90;;;;;;3148050;28;20048;-81
2021/08/19 08:07:05;;;;;;;22.92;4.78;;;24.30;59.10;;;;;;3143817;28;20044;-82
2021/08/19 08:08:37;;;;;;;28.00;4.72;;;24.30;59.20;;;;;;3143501;28;20056;-82
2021/08/19 08:10:09;;;;;;;21.85;4.63;;;24.30;59.20;;;;;;3149013;28;20564;-82
2021/08/19 08:11:41;;;;;;;11.30;4.20;;;24.30;59.20;;;;;;3147727;28;20426;-82
2021/08/19 08:13:13;;;;;;;15.73;4.45;;;24.30;59.00;;;;;;3140099;28;20056;-81
2021/08/19 08:14:44;;;;;;;17.55;4.82;;;24.30;58.90;;;;;;3145792;28;20491;-81